This is the latest recevied weather packets stored in our database for station/object IW2NIA-3. If no packets are shown the sender has not sent any weather packets the latest 10 day(s).
| Time | Temp. | Humidity | Pressure | Rain* | Wind** | Luminosity | Snow |
|---|---|---|---|---|---|---|---|
| 1787606322 | 19.44° C | 89% | 1012 hPa | 3.56 mm | - | - | - |
| 1787605412 | 19.44° C | 89% | 1012.5 hPa | 4.32 mm | - | - | - |
| 1787604519 | 19.44° C | 88% | 1012.6 hPa | 3.81 mm | - | - | - |
| 1787603614 | 20° C | 86% | 1013.1 hPa | 3.81 mm | - | - | - |
| 1787602723 | 21.67° C | 76% | 1013.3 hPa | 0.76 mm | - | - | - |
| 1787601812 | 25° C | 62% | 1012 hPa | 0 mm | - | - | - |
| 1787600925 | 25° C | 61% | 1012 hPa | 0 mm | - | - | - |
| 1787600024 | 25° C | 62% | 1012.1 hPa | 0 mm | - | - | - |
| 1787599112 | 25.56° C | 62% | 1012.3 hPa | 0 mm | - | - | - |
| 1787598217 | 25.56° C | 61% | 1012.9 hPa | 0 mm | - | - | - |
| 1787597317 | 25.56° C | 60% | 1012.8 hPa | 0 mm | - | - | - |
| 1787596427 | 26.11° C | 61% | 1012.7 hPa | 0 mm | - | - | - |
| 1787595524 | 26.11° C | 62% | 1012.8 hPa | 0 mm | - | - | - |
| 1787594627 | 26.67° C | 62% | 1013.2 hPa | 0 mm | - | - | - |
| 1787593723 | 27.22° C | 60% | 1013.2 hPa | 0 mm | - | - | - |
| 1787592821 | 27.22° C | 62% | 1013.3 hPa | 0 mm | - | - | - |
| 1787591917 | 27.22° C | 60% | 1013.3 hPa | 0 mm | - | - | - |
| 1787591009 | 27.78° C | 60% | 1013.4 hPa | 0 mm | - | - | - |
| 1787590120 | 27.78° C | 59% | 1013.4 hPa | 0 mm | - | - | - |
| 1787589210 | 27.78° C | 58% | 1013.9 hPa | 0 mm | - | - | - |
| 1787588319 | 28.33° C | 58% | 1014 hPa | 0 mm | - | - | - |
| 1787587406 | 28.89° C | 56% | 1014.2 hPa | 0 mm | - | - | - |
| 1787586508 | 28.33° C | 59% | 1014.2 hPa | 0 mm | - | - | - |
| 1787585619 | 27.78° C | 60% | 1014.8 hPa | 0 mm | - | - | - |
| 1787584709 | 28.33° C | 59% | 1014.9 hPa | 0 mm | - | - | - |
* Rain latest hour (hover to see other rain measurements)
** Current wind speed in m/s (hover to see current wind gust speed)